sensor_id;sensor_type;location;lat;lon;timestamp;P1;durP1;ratioP1;P2;durP2;ratioP2
11531;SDS011;5822;51.000;5.874;2022-11-23T00:01:01;14.82;;;13.93;;
11531;SDS011;5822;51.000;5.874;2022-11-23T00:03:38;14.63;;;13.63;;
11531;SDS011;5822;51.000;5.874;2022-11-23T00:06:04;14.00;;;13.20;;
11531;SDS011;5822;51.000;5.874;2022-11-23T00:08:30;14.07;;;13.17;;
11531;SDS011;5822;51.000;5.874;2022-11-23T00:10:58;13.60;;;12.80;;
11531;SDS011;5822;51.000;5.874;2022-11-23T00:13:24;14.00;;;13.20;;
11531;SDS011;5822;51.000;5.874;2022-11-23T00:15:50;14.30;;;13.40;;
11531;SDS011;5822;51.000;5.874;2022-11-23T00:18:16;14.10;;;13.30;;
11531;SDS011;5822;51.000;5.874;2022-11-23T00:20:42;14.25;;;13.45;;
11531;SDS011;5822;51.000;5.874;2022-11-23T00:23:08;14.48;;;13.63;;
11531;SDS011;5822;51.000;5.874;2022-11-23T00:25:34;15.32;;;14.32;;
11531;SDS011;5822;51.000;5.874;2022-11-23T00:27:59;15.65;;;14.68;;
11531;SDS011;5822;51.000;5.874;2022-11-23T00:30:25;14.43;;;13.52;;
11531;SDS011;5822;51.000;5.874;2022-11-23T00:32:51;14.60;;;13.70;;
11531;SDS011;5822;51.000;5.874;2022-11-23T00:35:18;14.40;;;13.50;;
11531;SDS011;5822;51.000;5.874;2022-11-23T00:37:43;14.80;;;13.82;;
11531;SDS011;5822;51.000;5.874;2022-11-23T00:40:09;14.50;;;13.60;;
11531;SDS011;5822;51.000;5.874;2022-11-23T00:42:35;14.20;;;13.40;;
11531;SDS011;5822;51.000;5.874;2022-11-23T00:45:00;14.35;;;13.55;;
11531;SDS011;5822;51.000;5.874;2022-11-23T00:47:26;14.23;;;13.33;;
11531;SDS011;5822;51.000;5.874;2022-11-23T00:49:51;13.63;;;12.90;;
11531;SDS011;5822;51.000;5.874;2022-11-23T00:52:17;14.80;;;13.80;;
11531;SDS011;5822;51.000;5.874;2022-11-23T00:54:42;14.13;;;13.30;;
11531;SDS011;5822;51.000;5.874;2022-11-23T00:57:08;14.25;;;13.45;;
11531;SDS011;5822;51.000;5.874;2022-11-23T00:59:34;14.20;;;13.40;;
11531;SDS011;5822;51.000;5.874;2022-11-23T01:02:00;14.10;;;13.30;;
11531;SDS011;5822;51.000;5.874;2022-11-23T01:04:26;14.63;;;13.80;;
11531;SDS011;5822;51.000;5.874;2022-11-23T01:06:54;14.00;;;13.20;;
11531;SDS011;5822;51.000;5.874;2022-11-23T01:09:21;14.30;;;13.50;;
11531;SDS011;5822;51.000;5.874;2022-11-23T01:11:50;14.63;;;13.57;;
11531;SDS011;5822;51.000;5.874;2022-11-23T01:14:19;13.68;;;12.88;;
11531;SDS011;5822;51.000;5.874;2022-11-23T01:16:45;13.88;;;13.00;;
11531;SDS011;5822;51.000;5.874;2022-11-23T01:19:15;14.60;;;13.70;;
11531;SDS011;5822;51.000;5.874;2022-11-23T01:21:43;14.35;;;13.48;;
11531;SDS011;5822;51.000;5.874;2022-11-23T01:24:11;14.40;;;13.55;;
11531;SDS011;5822;51.000;5.874;2022-11-23T01:26:41;14.97;;;14.07;;
11531;SDS011;5822;51.000;5.874;2022-11-23T01:29:08;14.83;;;14.00;;
11531;SDS011;5822;51.000;5.874;2022-11-23T01:31:34;17.83;;;16.83;;
11531;SDS011;5822;51.000;5.874;2022-11-23T01:34:00;14.30;;;13.45;;
11531;SDS011;5822;51.000;5.874;2022-11-23T01:36:28;14.02;;;13.13;;
11531;SDS011;5822;51.000;5.874;2022-11-23T01:38:56;14.52;;;13.65;;
11531;SDS011;5822;51.000;5.874;2022-11-23T01:41:24;14.65;;;13.75;;
11531;SDS011;5822;51.000;5.874;2022-11-23T01:43:51;14.75;;;13.80;;
11531;SDS011;5822;51.000;5.874;2022-11-23T01:46:17;14.32;;;13.45;;
11531;SDS011;5822;51.000;5.874;2022-11-23T01:49:05;14.43;;;13.57;;
11531;SDS011;5822;51.000;5.874;2022-11-23T01:51:33;14.57;;;13.77;;
11531;SDS011;5822;51.000;5.874;2022-11-23T01:54:07;15.18;;;14.27;;
11531;SDS011;5822;51.000;5.874;2022-11-23T01:56:49;14.40;;;13.50;;
11531;SDS011;5822;51.000;5.874;2022-11-23T01:59:22;14.32;;;13.52;;
11531;SDS011;5822;51.000;5.874;2022-11-23T02:01:49;14.50;;;13.60;;
11531;SDS011;5822;51.000;5.874;2022-11-23T02:04:15;14.30;;;13.50;;
11531;SDS011;5822;51.000;5.874;2022-11-23T02:06:45;14.55;;;13.55;;
11531;SDS011;5822;51.000;5.874;2022-11-23T02:09:11;14.48;;;13.52;;
11531;SDS011;5822;51.000;5.874;2022-11-23T02:11:38;14.18;;;13.32;;
11531;SDS011;5822;51.000;5.874;2022-11-23T02:14:04;15.13;;;14.13;;
11531;SDS011;5822;51.000;5.874;2022-11-23T02:16:29;15.20;;;14.00;;
11531;SDS011;5822;51.000;5.874;2022-11-23T02:18:55;14.87;;;13.97;;
11531;SDS011;5822;51.000;5.874;2022-11-23T02:21:20;15.40;;;14.40;;
11531;SDS011;5822;51.000;5.874;2022-11-23T02:29:11;14.73;;;13.75;;
11531;SDS011;5822;51.000;5.874;2022-11-23T02:31:44;14.30;;;13.45;;
11531;SDS011;5822;51.000;5.874;2022-11-23T02:34:10;14.32;;;13.43;;
11531;SDS011;5822;51.000;5.874;2022-11-23T02:36:49;14.40;;;13.50;;
11531;SDS011;5822;51.000;5.874;2022-11-23T02:39:21;15.70;;;14.50;;
11531;SDS011;5822;51.000;5.874;2022-11-23T02:41:55;14.85;;;13.85;;
11531;SDS011;5822;51.000;5.874;2022-11-23T02:46:47;15.45;;;14.45;;
11531;SDS011;5822;51.000;5.874;2022-11-23T02:49:13;14.40;;;13.50;;
11531;SDS011;5822;51.000;5.874;2022-11-23T02:51:39;15.00;;;14.00;;
11531;SDS011;5822;51.000;5.874;2022-11-23T02:54:04;14.53;;;13.53;;
11531;SDS011;5822;51.000;5.874;2022-11-23T02:56:30;14.80;;;13.80;;
11531;SDS011;5822;51.000;5.874;2022-11-23T02:58:55;15.07;;;14.17;;
11531;SDS011;5822;51.000;5.874;2022-11-23T03:01:21;15.20;;;14.10;;
11531;SDS011;5822;51.000;5.874;2022-11-23T03:03:47;15.02;;;14.02;;
11531;SDS011;5822;51.000;5.874;2022-11-23T03:06:12;16.10;;;14.90;;
11531;SDS011;5822;51.000;5.874;2022-11-23T03:08:38;15.77;;;14.77;;
11531;SDS011;5822;51.000;5.874;2022-11-23T03:11:03;15.20;;;14.00;;
11531;SDS011;5822;51.000;5.874;2022-11-23T03:13:29;15.40;;;14.20;;
11531;SDS011;5822;51.000;5.874;2022-11-23T03:15:55;14.60;;;13.70;;
11531;SDS011;5822;51.000;5.874;2022-11-23T03:18:21;14.93;;;13.95;;
11531;SDS011;5822;51.000;5.874;2022-11-23T03:20:46;15.00;;;14.00;;
11531;SDS011;5822;51.000;5.874;2022-11-23T03:23:12;15.77;;;14.50;;
11531;SDS011;5822;51.000;5.874;2022-11-23T03:25:38;15.43;;;14.43;;
11531;SDS011;5822;51.000;5.874;2022-11-23T03:28:05;15.10;;;14.02;;
11531;SDS011;5822;51.000;5.874;2022-11-23T03:30:31;16.25;;;15.10;;
11531;SDS011;5822;51.000;5.874;2022-11-23T03:32:56;14.80;;;13.80;;
11531;SDS011;5822;51.000;5.874;2022-11-23T03:35:22;15.00;;;14.07;;
11531;SDS011;5822;51.000;5.874;2022-11-23T03:37:48;14.57;;;13.70;;
11531;SDS011;5822;51.000;5.874;2022-11-23T03:40:13;15.30;;;14.30;;
11531;SDS011;5822;51.000;5.874;2022-11-23T03:42:39;14.93;;;13.97;;
11531;SDS011;5822;51.000;5.874;2022-11-23T03:45:06;15.70;;;14.50;;
11531;SDS011;5822;51.000;5.874;2022-11-23T03:47:32;15.32;;;14.23;;
11531;SDS011;5822;51.000;5.874;2022-11-23T03:49:58;15.95;;;14.65;;
11531;SDS011;5822;51.000;5.874;2022-11-23T03:52:24;15.43;;;14.43;;
11531;SDS011;5822;51.000;5.874;2022-11-23T03:54:49;14.73;;;13.80;;
11531;SDS011;5822;51.000;5.874;2022-11-23T03:57:15;14.67;;;13.77;;
11531;SDS011;5822;51.000;5.874;2022-11-23T03:59:41;15.03;;;14.03;;
11531;SDS011;5822;51.000;5.874;2022-11-23T04:02:06;14.67;;;13.77;;
11531;SDS011;5822;51.000;5.874;2022-11-23T04:04:32;15.80;;;14.70;;
11531;SDS011;5822;51.000;5.874;2022-11-23T04:06:58;15.57;;;14.48;;
11531;SDS011;5822;51.000;5.874;2022-11-23T04:09:24;14.63;;;13.63;;
11531;SDS011;5822;51.000;5.874;2022-11-23T04:11:50;15.20;;;14.10;;
11531;SDS011;5822;51.000;5.874;2022-11-23T04:14:16;14.52;;;13.60;;
11531;SDS011;5822;51.000;5.874;2022-11-23T04:16:42;14.82;;;13.82;;
11531;SDS011;5822;51.000;5.874;2022-11-23T04:19:07;14.75;;;13.85;;
11531;SDS011;5822;51.000;5.874;2022-11-23T04:21:33;15.35;;;14.35;;
11531;SDS011;5822;51.000;5.874;2022-11-23T04:23:59;15.23;;;14.23;;
11531;SDS011;5822;51.000;5.874;2022-11-23T04:26:24;17.83;;;16.63;;
11531;SDS011;5822;51.000;5.874;2022-11-23T04:28:50;16.15;;;15.15;;
11531;SDS011;5822;51.000;5.874;2022-11-23T04:31:15;16.17;;;15.17;;
11531;SDS011;5822;51.000;5.874;2022-11-23T04:33:41;15.10;;;14.10;;
11531;SDS011;5822;51.000;5.874;2022-11-23T04:36:07;14.30;;;13.50;;
11531;SDS011;5822;51.000;5.874;2022-11-23T04:38:33;15.23;;;14.23;;
11531;SDS011;5822;51.000;5.874;2022-11-23T04:40:58;15.20;;;14.20;;
11531;SDS011;5822;51.000;5.874;2022-11-23T04:43:24;14.57;;;13.67;;
11531;SDS011;5822;51.000;5.874;2022-11-23T04:45:50;15.48;;;14.48;;
11531;SDS011;5822;51.000;5.874;2022-11-23T04:48:15;14.93;;;14.02;;
11531;SDS011;5822;51.000;5.874;2022-11-23T04:50:41;15.55;;;14.45;;
11531;SDS011;5822;51.000;5.874;2022-11-23T04:53:07;16.00;;;15.00;;
11531;SDS011;5822;51.000;5.874;2022-11-23T04:55:32;16.30;;;15.30;;
11531;SDS011;5822;51.000;5.874;2022-11-23T04:57:58;16.13;;;14.93;;
11531;SDS011;5822;51.000;5.874;2022-11-23T05:00:24;16.27;;;14.87;;
11531;SDS011;5822;51.000;5.874;2022-11-23T05:02:52;15.10;;;14.10;;
11531;SDS011;5822;51.000;5.874;2022-11-23T05:05:18;15.80;;;14.70;;
11531;SDS011;5822;51.000;5.874;2022-11-23T05:07:43;17.00;;;15.80;;
11531;SDS011;5822;51.000;5.874;2022-11-23T05:10:09;17.30;;;16.20;;
11531;SDS011;5822;51.000;5.874;2022-11-23T05:12:35;15.70;;;14.60;;
11531;SDS011;5822;51.000;5.874;2022-11-23T05:15:01;15.60;;;14.60;;
11531;SDS011;5822;51.000;5.874;2022-11-23T05:17:27;16.17;;;14.98;;
11531;SDS011;5822;51.000;5.874;2022-11-23T05:19:53;17.67;;;16.27;;
11531;SDS011;5822;51.000;5.874;2022-11-23T05:22:20;18.17;;;16.77;;
11531;SDS011;5822;51.000;5.874;2022-11-23T05:24:46;17.40;;;16.20;;
11531;SDS011;5822;51.000;5.874;2022-11-23T05:27:11;18.73;;;17.52;;
11531;SDS011;5822;51.000;5.874;2022-11-23T05:29:37;18.77;;;17.58;;
11531;SDS011;5822;51.000;5.874;2022-11-23T05:32:03;20.23;;;18.83;;
11531;SDS011;5822;51.000;5.874;2022-11-23T05:34:28;16.23;;;15.05;;
11531;SDS011;5822;51.000;5.874;2022-11-23T05:36:54;16.48;;;15.27;;
11531;SDS011;5822;51.000;5.874;2022-11-23T05:39:20;15.75;;;14.70;;
11531;SDS011;5822;51.000;5.874;2022-11-23T05:41:45;16.50;;;15.30;;
11531;SDS011;5822;51.000;5.874;2022-11-23T05:44:11;17.73;;;16.30;;
11531;SDS011;5822;51.000;5.874;2022-11-23T05:46:36;17.20;;;16.00;;
11531;SDS011;5822;51.000;5.874;2022-11-23T05:49:02;19.15;;;17.77;;
11531;SDS011;5822;51.000;5.874;2022-11-23T05:51:28;19.08;;;17.70;;
11531;SDS011;5822;51.000;5.874;2022-11-23T05:53:53;16.05;;;14.95;;
11531;SDS011;5822;51.000;5.874;2022-11-23T05:56:21;15.80;;;14.70;;
11531;SDS011;5822;51.000;5.874;2022-11-23T05:58:46;15.73;;;14.70;;
11531;SDS011;5822;51.000;5.874;2022-11-23T06:01:12;16.60;;;15.50;;
11531;SDS011;5822;51.000;5.874;2022-11-23T06:03:38;18.37;;;16.97;;
11531;SDS011;5822;51.000;5.874;2022-11-23T06:06:03;18.80;;;17.58;;
11531;SDS011;5822;51.000;5.874;2022-11-23T06:08:30;17.70;;;16.60;;
11531;SDS011;5822;51.000;5.874;2022-11-23T06:10:55;17.92;;;16.83;;
11531;SDS011;5822;51.000;5.874;2022-11-23T06:13:27;16.30;;;15.05;;
11531;SDS011;5822;51.000;5.874;2022-11-23T06:15:53;16.25;;;15.05;;
11531;SDS011;5822;51.000;5.874;2022-11-23T06:18:18;16.70;;;15.40;;
11531;SDS011;5822;51.000;5.874;2022-11-23T06:20:44;18.30;;;16.90;;
11531;SDS011;5822;51.000;5.874;2022-11-23T06:23:10;19.00;;;17.50;;
11531;SDS011;5822;51.000;5.874;2022-11-23T06:25:35;18.90;;;17.50;;
11531;SDS011;5822;51.000;5.874;2022-11-23T06:28:03;19.10;;;17.80;;
11531;SDS011;5822;51.000;5.874;2022-11-23T06:30:29;16.60;;;15.45;;
11531;SDS011;5822;51.000;5.874;2022-11-23T06:32:55;16.20;;;15.10;;
11531;SDS011;5822;51.000;5.874;2022-11-23T06:35:21;16.38;;;15.18;;
11531;SDS011;5822;51.000;5.874;2022-11-23T06:37:47;16.77;;;15.57;;
11531;SDS011;5822;51.000;5.874;2022-11-23T06:40:14;18.27;;;17.08;;
11531;SDS011;5822;51.000;5.874;2022-11-23T06:42:40;18.40;;;17.00;;
11531;SDS011;5822;51.000;5.874;2022-11-23T06:45:06;18.20;;;17.00;;
11531;SDS011;5822;51.000;5.874;2022-11-23T06:47:32;19.40;;;18.20;;
11531;SDS011;5822;51.000;5.874;2022-11-23T06:49:57;19.20;;;17.90;;
11531;SDS011;5822;51.000;5.874;2022-11-23T06:52:23;15.98;;;14.88;;
11531;SDS011;5822;51.000;5.874;2022-11-23T06:54:49;15.68;;;14.68;;
11531;SDS011;5822;51.000;5.874;2022-11-23T06:57:14;16.37;;;15.17;;
11531;SDS011;5822;51.000;5.874;2022-11-23T06:59:40;16.97;;;15.87;;
11531;SDS011;5822;51.000;5.874;2022-11-23T07:02:05;16.93;;;15.87;;
11531;SDS011;5822;51.000;5.874;2022-11-23T07:04:34;19.23;;;17.97;;
11531;SDS011;5822;51.000;5.874;2022-11-23T07:06:59;19.70;;;18.40;;
11531;SDS011;5822;51.000;5.874;2022-11-23T07:09:25;15.80;;;14.80;;
11531;SDS011;5822;51.000;5.874;2022-11-23T07:11:50;16.30;;;15.10;;
11531;SDS011;5822;51.000;5.874;2022-11-23T07:14:16;16.52;;;15.35;;
11531;SDS011;5822;51.000;5.874;2022-11-23T07:16:41;16.83;;;15.65;;
11531;SDS011;5822;51.000;5.874;2022-11-23T07:19:07;17.38;;;16.15;;
11531;SDS011;5822;51.000;5.874;2022-11-23T07:21:33;18.23;;;16.92;;
11531;SDS011;5822;51.000;5.874;2022-11-23T07:23:58;20.37;;;19.07;;
11531;SDS011;5822;51.000;5.874;2022-11-23T07:26:24;18.87;;;17.67;;
11531;SDS011;5822;51.000;5.874;2022-11-23T07:28:49;16.63;;;15.30;;
11531;SDS011;5822;51.000;5.874;2022-11-23T07:31:15;15.90;;;14.70;;
11531;SDS011;5822;51.000;5.874;2022-11-23T07:33:44;16.30;;;15.10;;
11531;SDS011;5822;51.000;5.874;2022-11-23T07:36:11;16.80;;;15.50;;
11531;SDS011;5822;51.000;5.874;2022-11-23T07:38:37;17.00;;;15.70;;
11531;SDS011;5822;51.000;5.874;2022-11-23T07:41:02;16.77;;;15.67;;
11531;SDS011;5822;51.000;5.874;2022-11-23T07:43:28;18.43;;;17.13;;
11531;SDS011;5822;51.000;5.874;2022-11-23T07:45:54;18.50;;;17.20;;
11531;SDS011;5822;51.000;5.874;2022-11-23T07:48:21;17.30;;;16.00;;
11531;SDS011;5822;51.000;5.874;2022-11-23T07:50:47;16.20;;;15.00;;
11531;SDS011;5822;51.000;5.874;2022-11-23T07:53:16;16.03;;;14.93;;
11531;SDS011;5822;51.000;5.874;2022-11-23T07:55:42;16.42;;;15.23;;
11531;SDS011;5822;51.000;5.874;2022-11-23T07:58:08;17.30;;;15.90;;
11531;SDS011;5822;51.000;5.874;2022-11-23T08:00:34;17.10;;;15.90;;
11531;SDS011;5822;51.000;5.874;2022-11-23T08:03:01;18.17;;;16.88;;
11531;SDS011;5822;51.000;5.874;2022-11-23T08:05:26;18.08;;;16.88;;
11531;SDS011;5822;51.000;5.874;2022-11-23T08:07:58;17.88;;;16.60;;
11531;SDS011;5822;51.000;5.874;2022-11-23T08:10:28;16.17;;;15.07;;
11531;SDS011;5822;51.000;5.874;2022-11-23T08:12:56;16.00;;;14.90;;
11531;SDS011;5822;51.000;5.874;2022-11-23T08:15:22;17.38;;;15.98;;
11531;SDS011;5822;51.000;5.874;2022-11-23T08:17:48;17.45;;;16.08;;
11531;SDS011;5822;51.000;5.874;2022-11-23T08:20:17;17.75;;;16.35;;
11531;SDS011;5822;51.000;5.874;2022-11-23T08:22:43;19.20;;;17.70;;
11531;SDS011;5822;51.000;5.874;2022-11-23T08:25:09;18.80;;;17.20;;
11531;SDS011;5822;51.000;5.874;2022-11-23T08:27:34;19.08;;;17.58;;
11531;SDS011;5822;51.000;5.874;2022-11-23T08:30:00;16.48;;;15.27;;
11531;SDS011;5822;51.000;5.874;2022-11-23T08:32:25;17.27;;;15.77;;
11531;SDS011;5822;51.000;5.874;2022-11-23T08:34:51;16.30;;;15.10;;
11531;SDS011;5822;51.000;5.874;2022-11-23T08:37:17;17.10;;;15.90;;
11531;SDS011;5822;51.000;5.874;2022-11-23T08:39:42;17.90;;;16.40;;
11531;SDS011;5822;51.000;5.874;2022-11-23T08:42:08;18.00;;;16.60;;
11531;SDS011;5822;51.000;5.874;2022-11-23T08:44:34;18.80;;;17.50;;
11531;SDS011;5822;51.000;5.874;2022-11-23T08:46:59;18.90;;;17.50;;
11531;SDS011;5822;51.000;5.874;2022-11-23T08:49:25;16.70;;;15.40;;
11531;SDS011;5822;51.000;5.874;2022-11-23T08:51:51;17.30;;;16.00;;
11531;SDS011;5822;51.000;5.874;2022-11-23T08:54:16;17.27;;;15.90;;
11531;SDS011;5822;51.000;5.874;2022-11-23T08:56:42;17.52;;;16.10;;
11531;SDS011;5822;51.000;5.874;2022-11-23T08:59:07;17.37;;;16.07;;
11531;SDS011;5822;51.000;5.874;2022-11-23T09:01:33;17.83;;;16.57;;
11531;SDS011;5822;51.000;5.874;2022-11-23T09:03:59;18.53;;;17.23;;
11531;SDS011;5822;51.000;5.874;2022-11-23T09:06:25;16.42;;;15.32;;
11531;SDS011;5822;51.000;5.874;2022-11-23T09:08:53;16.42;;;15.20;;
11531;SDS011;5822;51.000;5.874;2022-11-23T09:11:19;15.90;;;14.90;;
11531;SDS011;5822;51.000;5.874;2022-11-23T09:13:45;16.27;;;15.10;;
11531;SDS011;5822;51.000;5.874;2022-11-23T09:16:10;16.70;;;15.30;;
11531;SDS011;5822;51.000;5.874;2022-11-23T09:18:36;16.73;;;15.60;;
11531;SDS011;5822;51.000;5.874;2022-11-23T09:21:02;18.70;;;17.30;;
11531;SDS011;5822;51.000;5.874;2022-11-23T09:23:29;16.50;;;15.27;;
11531;SDS011;5822;51.000;5.874;2022-11-23T09:25:58;16.80;;;15.50;;
11531;SDS011;5822;51.000;5.874;2022-11-23T09:28:25;16.65;;;15.25;;
11531;SDS011;5822;51.000;5.874;2022-11-23T09:30:52;16.67;;;15.50;;
11531;SDS011;5822;51.000;5.874;2022-11-23T09:33:19;17.02;;;15.73;;
11531;SDS011;5822;51.000;5.874;2022-11-23T09:35:45;17.40;;;16.20;;
11531;SDS011;5822;51.000;5.874;2022-11-23T09:38:10;17.20;;;16.00;;
11531;SDS011;5822;51.000;5.874;2022-11-23T09:40:37;16.30;;;15.13;;
11531;SDS011;5822;51.000;5.874;2022-11-23T09:45:59;16.65;;;15.45;;
11531;SDS011;5822;51.000;5.874;2022-11-23T09:51:21;17.00;;;15.90;;
11531;SDS011;5822;51.000;5.874;2022-11-23T09:53:49;16.08;;;14.98;;
11531;SDS011;5822;51.000;5.874;2022-11-23T09:56:20;16.13;;;14.95;;
11531;SDS011;5822;51.000;5.874;2022-11-23T09:58:51;16.42;;;15.27;;
11531;SDS011;5822;51.000;5.874;2022-11-23T10:01:22;16.88;;;15.57;;
11531;SDS011;5822;51.000;5.874;2022-11-23T10:03:48;16.67;;;15.57;;
11531;SDS011;5822;51.000;5.874;2022-11-23T10:08:58;15.95;;;14.80;;
11531;SDS011;5822;51.000;5.874;2022-11-23T10:15:27;16.15;;;15.13;;
11531;SDS011;5822;51.000;5.874;2022-11-23T10:22:56;16.00;;;14.90;;
11531;SDS011;5822;51.000;5.874;2022-11-23T10:25:33;16.20;;;15.00;;
11531;SDS011;5822;51.000;5.874;2022-11-23T10:28:24;15.77;;;14.77;;
11531;SDS011;5822;51.000;5.874;2022-11-23T10:31:09;16.08;;;14.98;;
11531;SDS011;5822;51.000;5.874;2022-11-23T10:36:11;15.60;;;14.60;;
11531;SDS011;5822;51.000;5.874;2022-11-23T10:38:41;15.90;;;14.80;;
11531;SDS011;5822;51.000;5.874;2022-11-23T10:41:10;15.50;;;14.50;;
11531;SDS011;5822;51.000;5.874;2022-11-23T10:43:48;16.10;;;15.10;;
11531;SDS011;5822;51.000;5.874;2022-11-23T10:46:28;16.17;;;15.18;;
11531;SDS011;5822;51.000;5.874;2022-11-23T10:48:55;15.50;;;14.50;;
11531;SDS011;5822;51.000;5.874;2022-11-23T10:54:50;15.90;;;14.80;;
11531;SDS011;5822;51.000;5.874;2022-11-23T11:02:44;15.63;;;14.52;;
11531;SDS011;5822;51.000;5.874;2022-11-23T11:05:23;15.68;;;14.57;;
11531;SDS011;5822;51.000;5.874;2022-11-23T11:07:57;15.27;;;14.38;;
11531;SDS011;5822;51.000;5.874;2022-11-23T11:10:36;16.20;;;15.10;;
11531;SDS011;5822;51.000;5.874;2022-11-23T11:18:30;15.83;;;14.83;;
11531;SDS011;5822;51.000;5.874;2022-11-23T11:20:58;16.30;;;15.30;;
11531;SDS011;5822;51.000;5.874;2022-11-23T11:23:42;16.43;;;15.33;;
11531;SDS011;5822;51.000;5.874;2022-11-23T11:26:23;16.25;;;15.05;;
11531;SDS011;5822;51.000;5.874;2022-11-23T11:28:54;16.23;;;15.10;;
11531;SDS011;5822;51.000;5.874;2022-11-23T11:34:16;16.30;;;15.30;;
11531;SDS011;5822;51.000;5.874;2022-11-23T11:39:32;16.20;;;15.10;;
11531;SDS011;5822;51.000;5.874;2022-11-23T11:42:00;15.80;;;14.70;;
11531;SDS011;5822;51.000;5.874;2022-11-23T11:44:29;15.98;;;14.88;;
11531;SDS011;5822;51.000;5.874;2022-11-23T11:47:02;15.80;;;14.80;;
11531;SDS011;5822;51.000;5.874;2022-11-23T11:49:34;15.88;;;14.88;;
11531;SDS011;5822;51.000;5.874;2022-11-23T11:52:07;15.30;;;14.30;;
11531;SDS011;5822;51.000;5.874;2022-11-23T11:59:54;16.30;;;15.30;;
11531;SDS011;5822;51.000;5.874;2022-11-23T12:02:35;16.30;;;15.20;;
11531;SDS011;5822;51.000;5.874;2022-11-23T12:11:08;15.10;;;14.20;;
11531;SDS011;5822;51.000;5.874;2022-11-23T12:13:32;15.70;;;14.73;;
11531;SDS011;5822;51.000;5.874;2022-11-23T12:24:21;15.68;;;14.68;;
11531;SDS011;5822;51.000;5.874;2022-11-23T12:33:26;15.40;;;14.50;;
11531;SDS011;5822;51.000;5.874;2022-11-23T12:41:36;14.60;;;13.70;;
11531;SDS011;5822;51.000;5.874;2022-11-23T12:50:10;14.40;;;13.60;;
11531;SDS011;5822;51.000;5.874;2022-11-23T12:55:48;15.00;;;14.00;;
11531;SDS011;5822;51.000;5.874;2022-11-23T12:58:28;14.70;;;13.80;;
11531;SDS011;5822;51.000;5.874;2022-11-23T13:01:15;14.75;;;13.85;;
11531;SDS011;5822;51.000;5.874;2022-11-23T13:12:24;14.40;;;13.50;;
11531;SDS011;5822;51.000;5.874;2022-11-23T13:20:24;14.80;;;13.85;;
11531;SDS011;5822;51.000;5.874;2022-11-23T13:23:08;15.00;;;14.10;;
11531;SDS011;5822;51.000;5.874;2022-11-23T13:25:34;14.70;;;13.80;;
11531;SDS011;5822;51.000;5.874;2022-11-23T13:28:01;14.83;;;13.93;;
11531;SDS011;5822;51.000;5.874;2022-11-23T13:30:45;14.70;;;13.80;;
11531;SDS011;5822;51.000;5.874;2022-11-23T13:33:40;14.77;;;13.88;;
11531;SDS011;5822;51.000;5.874;2022-11-23T13:36:11;14.70;;;13.80;;
11531;SDS011;5822;51.000;5.874;2022-11-23T13:38:58;14.38;;;13.57;;
11531;SDS011;5822;51.000;5.874;2022-11-23T13:43:56;14.60;;;13.80;;
11531;SDS011;5822;51.000;5.874;2022-11-23T13:46:22;14.60;;;13.80;;
11531;SDS011;5822;51.000;5.874;2022-11-23T13:48:53;14.43;;;13.57;;
11531;SDS011;5822;51.000;5.874;2022-11-23T13:51:23;14.93;;;14.00;;
11531;SDS011;5822;51.000;5.874;2022-11-23T13:53:53;15.20;;;14.30;;
11531;SDS011;5822;51.000;5.874;2022-11-23T14:04:46;14.60;;;13.70;;
11531;SDS011;5822;51.000;5.874;2022-11-23T14:07:16;14.73;;;13.82;;
11531;SDS011;5822;51.000;5.874;2022-11-23T14:10:03;14.38;;;13.57;;
11531;SDS011;5822;51.000;5.874;2022-11-23T14:15:18;15.80;;;14.80;;
11531;SDS011;5822;51.000;5.874;2022-11-23T14:17:51;15.00;;;14.10;;
11531;SDS011;5822;51.000;5.874;2022-11-23T14:20:33;14.93;;;14.02;;
11531;SDS011;5822;51.000;5.874;2022-11-23T14:25:54;15.80;;;14.90;;
11531;SDS011;5822;51.000;5.874;2022-11-23T14:28:31;15.35;;;14.45;;
11531;SDS011;5822;51.000;5.874;2022-11-23T14:31:21;15.30;;;14.40;;
11531;SDS011;5822;51.000;5.874;2022-11-23T14:37:10;15.50;;;14.60;;
11531;SDS011;5822;51.000;5.874;2022-11-23T14:42:28;15.00;;;14.10;;
11531;SDS011;5822;51.000;5.874;2022-11-23T14:44:55;14.80;;;14.00;;
11531;SDS011;5822;51.000;5.874;2022-11-23T14:47:29;15.00;;;14.10;;
11531;SDS011;5822;51.000;5.874;2022-11-23T14:49:55;15.20;;;14.30;;
11531;SDS011;5822;51.000;5.874;2022-11-23T14:52:22;15.10;;;14.20;;
11531;SDS011;5822;51.000;5.874;2022-11-23T14:54:56;15.25;;;14.35;;
11531;SDS011;5822;51.000;5.874;2022-11-23T14:57:24;15.02;;;14.23;;
11531;SDS011;5822;51.000;5.874;2022-11-23T14:59:56;16.00;;;15.10;;
11531;SDS011;5822;51.000;5.874;2022-11-23T15:02:33;16.30;;;15.20;;
11531;SDS011;5822;51.000;5.874;2022-11-23T15:10:17;15.85;;;14.75;;
11531;SDS011;5822;51.000;5.874;2022-11-23T15:12:50;15.82;;;14.82;;
11531;SDS011;5822;51.000;5.874;2022-11-23T15:15:25;15.52;;;14.63;;
11531;SDS011;5822;51.000;5.874;2022-11-23T15:17:57;15.40;;;14.40;;
11531;SDS011;5822;51.000;5.874;2022-11-23T15:20:28;15.80;;;14.75;;
11531;SDS011;5822;51.000;5.874;2022-11-23T15:23:05;15.00;;;14.10;;
11531;SDS011;5822;51.000;5.874;2022-11-23T15:25:30;15.23;;;14.33;;
11531;SDS011;5822;51.000;5.874;2022-11-23T15:27:56;15.33;;;14.33;;
11531;SDS011;5822;51.000;5.874;2022-11-23T15:30:28;14.70;;;13.90;;
11531;SDS011;5822;51.000;5.874;2022-11-23T15:35:22;15.25;;;14.27;;
11531;SDS011;5822;51.000;5.874;2022-11-23T15:37:56;14.60;;;13.80;;
11531;SDS011;5822;51.000;5.874;2022-11-23T15:40:23;15.13;;;14.23;;
11531;SDS011;5822;51.000;5.874;2022-11-23T15:42:53;15.20;;;14.20;;
11531;SDS011;5822;51.000;5.874;2022-11-23T15:50:52;15.20;;;14.30;;
11531;SDS011;5822;51.000;5.874;2022-11-23T15:53:21;15.98;;;14.98;;
11531;SDS011;5822;51.000;5.874;2022-11-23T15:55:51;15.15;;;14.25;;
11531;SDS011;5822;51.000;5.874;2022-11-23T15:58:18;15.80;;;14.80;;
11531;SDS011;5822;51.000;5.874;2022-11-23T16:00:47;15.60;;;14.60;;
11531;SDS011;5822;51.000;5.874;2022-11-23T16:03:49;15.30;;;14.30;;
11531;SDS011;5822;51.000;5.874;2022-11-23T16:06:23;15.15;;;14.25;;
11531;SDS011;5822;51.000;5.874;2022-11-23T16:08:57;15.30;;;14.30;;
11531;SDS011;5822;51.000;5.874;2022-11-23T16:11:30;15.03;;;14.13;;
11531;SDS011;5822;51.000;5.874;2022-11-23T16:14:15;15.20;;;14.30;;
11531;SDS011;5822;51.000;5.874;2022-11-23T16:16:42;15.47;;;14.47;;
11531;SDS011;5822;51.000;5.874;2022-11-23T16:19:27;15.90;;;14.90;;
11531;SDS011;5822;51.000;5.874;2022-11-23T16:21:55;15.10;;;14.20;;
11531;SDS011;5822;51.000;5.874;2022-11-23T16:24:26;15.70;;;14.73;;
11531;SDS011;5822;51.000;5.874;2022-11-23T16:26:53;15.68;;;14.68;;
11531;SDS011;5822;51.000;5.874;2022-11-23T16:29:20;15.00;;;14.10;;
11531;SDS011;5822;51.000;5.874;2022-11-23T16:31:51;14.90;;;14.10;;
11531;SDS011;5822;51.000;5.874;2022-11-23T16:34:19;14.90;;;14.05;;
11531;SDS011;5822;51.000;5.874;2022-11-23T16:36:46;14.52;;;13.73;;
11531;SDS011;5822;51.000;5.874;2022-11-23T16:39:11;14.57;;;13.77;;
11531;SDS011;5822;51.000;5.874;2022-11-23T16:41:37;14.57;;;13.77;;
11531;SDS011;5822;51.000;5.874;2022-11-23T16:44:03;14.77;;;13.98;;
11531;SDS011;5822;51.000;5.874;2022-11-23T16:46:30;14.73;;;13.90;;
11531;SDS011;5822;51.000;5.874;2022-11-23T16:48:55;14.40;;;13.60;;
11531;SDS011;5822;51.000;5.874;2022-11-23T16:51:23;14.35;;;13.55;;
11531;SDS011;5822;51.000;5.874;2022-11-23T16:53:49;14.60;;;13.80;;
11531;SDS011;5822;51.000;5.874;2022-11-23T16:56:16;14.35;;;13.55;;
11531;SDS011;5822;51.000;5.874;2022-11-23T16:58:44;14.30;;;13.50;;